createdAt,value
2022-07-29T00:02:44.205Z,56.95
2022-07-29T00:05:45.998Z,56.89
2022-07-29T00:08:47.990Z,57.09
2022-07-29T00:11:49.881Z,57.83
2022-07-29T00:14:51.921Z,58.07
2022-07-29T00:17:53.633Z,58.97
2022-07-29T00:20:55.642Z,58.74
2022-07-29T00:23:57.393Z,61.04
2022-07-29T00:26:59.123Z,62.72
2022-07-29T00:30:00.898Z,63.17
2022-07-29T00:33:05.003Z,62.77
2022-07-29T00:36:09.872Z,61.08
2022-07-29T00:39:11.558Z,61.99
2022-07-29T00:42:13.351Z,62.76
2022-07-29T00:45:15.944Z,63.04
2022-07-29T00:48:17.627Z,62.76
2022-07-29T00:51:19.346Z,63.62
2022-07-29T00:54:21.168Z,63.37
2022-07-29T00:57:22.971Z,63.03
2022-07-29T01:00:26.891Z,63.37
2022-07-29T01:03:28.635Z,63.65
2022-07-29T01:06:30.676Z,64.52
2022-07-29T01:09:40.875Z,64.56
2022-07-29T01:12:51.199Z,64.60
2022-07-29T01:15:57.595Z,64.75
2022-07-29T01:19:13.994Z,63.99
2022-07-29T01:22:37.622Z,64.53
2022-07-29T01:26:16.682Z,64.70
2022-07-29T01:29:36.122Z,64.70
2022-07-29T01:32:42.065Z,64.88
2022-07-29T01:35:45.915Z,64.66
2022-07-29T01:39:09.514Z,66.26
2022-07-29T01:42:14.247Z,66.22
2022-07-29T01:45:20.023Z,67.09
2022-07-29T01:48:27.068Z,67.67
2022-07-29T01:51:37.000Z,67.97
2022-07-29T01:54:40.297Z,68.72
2022-07-29T01:57:46.637Z,68.29
2022-07-29T02:00:50.173Z,68.32
2022-07-29T02:03:54.283Z,68.27
2022-07-29T02:07:00.015Z,67.87
2022-07-29T02:10:05.875Z,67.41
2022-07-29T02:13:08.213Z,66.96
2022-07-29T02:16:10.952Z,66.93
2022-07-29T02:19:15.584Z,67.28
2022-07-29T02:22:19.507Z,67.19
2022-07-29T02:25:23.388Z,67.37
2022-07-29T02:28:28.521Z,67.65
2022-07-29T02:31:35.282Z,68.44
2022-07-29T02:34:39.463Z,68.64
2022-07-29T02:37:43.402Z,68.54
2022-07-29T02:40:45.849Z,68.72
2022-07-29T02:43:56.242Z,68.82
2022-07-29T02:47:22.580Z,67.85
2022-07-29T02:50:38.823Z,67.39
2022-07-29T02:53:43.085Z,67.27
2022-07-29T02:56:46.918Z,68.23
2022-07-29T02:59:52.595Z,68.75
2022-07-29T03:02:57.119Z,69.07
2022-07-29T03:06:02.111Z,69.53
2022-07-29T03:09:06.707Z,69.11
2022-07-29T03:12:13.318Z,68.41
2022-07-29T03:15:15.650Z,68.74
2022-07-29T03:18:18.233Z,68.85
2022-07-29T03:21:20.051Z,69.16
2022-07-29T03:24:31.530Z,69.03
2022-07-29T03:27:33.230Z,69.84
2022-07-29T03:30:35.027Z,70.46
2022-07-29T03:33:36.740Z,70.50
2022-07-29T03:36:38.422Z,70.77
2022-07-29T03:39:42.467Z,71.44
2022-07-29T03:42:46.626Z,71.60
2022-07-29T03:45:54.671Z,71.65
2022-07-29T03:49:01.154Z,71.81
2022-07-29T03:52:03.099Z,71.21
2022-07-29T03:55:06.014Z,71.60
2022-07-29T03:58:09.245Z,71.93
2022-07-29T04:01:12.578Z,71.25
2022-07-29T04:04:14.743Z,70.30
2022-07-29T04:07:16.772Z,70.03
2022-07-29T04:10:30.182Z,70.45
2022-07-29T04:13:34.209Z,70.50
2022-07-29T04:16:35.908Z,69.84
2022-07-29T04:19:37.669Z,69.61
2022-07-29T04:22:39.342Z,70.16
2022-07-29T04:25:42.092Z,70.72
2022-07-29T04:28:43.905Z,70.54
2022-07-29T04:31:45.827Z,70.21
2022-07-29T04:34:47.673Z,71.77
2022-07-29T04:37:49.647Z,72.22
2022-07-29T04:40:51.323Z,71.15
2022-07-29T04:43:53.052Z,70.85
2022-07-29T04:46:54.838Z,71.79
2022-07-29T04:49:57.280Z,71.74
2022-07-29T04:52:59.228Z,71.51
2022-07-29T04:56:00.892Z,71.74
2022-07-29T04:59:02.663Z,70.60
2022-07-29T05:02:04.307Z,70.80
2022-07-29T05:05:06.716Z,70.88
2022-07-29T05:08:08.373Z,70.53
2022-07-29T05:11:12.508Z,71.02
2022-07-29T05:14:15.042Z,71.16
2022-07-29T05:17:17.637Z,71.05
2022-07-29T05:20:19.784Z,69.95
2022-07-29T05:23:21.442Z,69.58
2022-07-29T05:26:23.213Z,68.72
2022-07-29T05:29:43.230Z,68.56
2022-07-29T05:32:47.223Z,67.90
2022-07-29T05:35:49.017Z,67.99
2022-07-29T05:38:51.912Z,70.26
2022-07-29T05:41:53.637Z,71.38
2022-07-29T05:44:55.382Z,70.96
2022-07-29T05:47:57.083Z,72.35
2022-07-29T05:50:58.771Z,72.92
2022-07-29T05:54:00.642Z,72.53
2022-07-29T05:57:02.748Z,72.94
2022-07-29T06:00:05.297Z,71.64
2022-07-29T06:03:14.027Z,71.36
2022-07-29T06:06:16.040Z,70.46
2022-07-29T06:09:17.839Z,69.50
2022-07-29T06:12:20.794Z,69.49
2022-07-29T06:15:22.510Z,68.23
2022-07-29T06:18:27.055Z,67.51
2022-07-29T06:21:28.924Z,67.41
2022-07-29T06:24:30.681Z,67.62
2022-07-29T06:27:32.412Z,67.56
2022-07-29T06:30:34.239Z,66.99
2022-07-29T06:33:35.936Z,66.81
2022-07-29T06:36:38.319Z,66.41
2022-07-29T06:39:41.515Z,66.71
2022-07-29T06:42:46.260Z,66.04
2022-07-29T06:45:48.013Z,64.52
2022-07-29T06:48:50.302Z,63.97
2022-07-29T06:51:52.481Z,62.94
2022-07-29T06:54:56.005Z,63.56
2022-07-29T06:57:57.713Z,63.78
2022-07-29T07:01:02.613Z,64.48
2022-07-29T07:04:04.491Z,64.53
2022-07-29T07:07:06.225Z,64.38
2022-07-29T07:10:08.355Z,65.38
2022-07-29T07:13:11.253Z,62.89
2022-07-29T07:16:12.912Z,62.16
2022-07-29T07:19:14.581Z,61.16
2022-07-29T07:22:16.235Z,57.85
2022-07-29T07:25:20.619Z,57.82
2022-07-29T07:28:24.971Z,56.99
2022-07-29T07:31:27.132Z,56.19
2022-07-29T07:34:29.717Z,56.82
2022-07-29T07:37:32.092Z,57.24
2022-07-29T07:40:33.804Z,57.08
2022-07-29T07:43:35.444Z,57.80
2022-07-29T07:46:37.050Z,58.67
2022-07-29T07:49:40.603Z,55.16
2022-07-29T07:52:54.706Z,54.32
2022-07-29T07:56:12.835Z,52.23
2022-07-29T07:59:14.798Z,53.40
2022-07-29T08:02:16.661Z,53.01
2022-07-29T08:05:19.458Z,54.93
2022-07-29T08:08:21.990Z,54.61
2022-07-29T08:11:23.687Z,55.00
2022-07-29T08:14:25.990Z,53.88
2022-07-29T08:17:27.816Z,54.67
2022-07-29T08:20:30.078Z,52.83
2022-07-29T08:23:45.953Z,54.17
2022-07-29T08:26:49.156Z,51.07
2022-07-29T08:29:51.007Z,51.67
2022-07-29T08:32:55.050Z,51.67
2022-07-29T08:35:57.445Z,49.47
2022-07-29T08:38:59.351Z,51.71
2022-07-29T08:42:01.296Z,49.89
2022-07-29T08:45:04.689Z,50.02
2022-07-29T08:48:08.874Z,49.28
2022-07-29T08:51:21.807Z,49.56
2022-07-29T08:54:24.459Z,49.93
2022-07-29T08:57:27.469Z,49.33
2022-07-29T09:00:30.674Z,48.47
2022-07-29T09:03:36.110Z,49.77
2022-07-29T09:06:42.840Z,49.82
2022-07-29T09:09:45.289Z,48.80
2022-07-29T09:12:47.489Z,48.75
2022-07-29T09:15:49.877Z,46.78
2022-07-29T09:18:51.583Z,46.29
2022-07-29T09:22:00.339Z,46.12
2022-07-29T09:25:02.833Z,46.26
2022-07-29T09:28:17.384Z,45.97
2022-07-29T09:31:27.439Z,46.53
2022-07-29T09:34:32.418Z,46.21
2022-07-29T09:37:34.214Z,43.56
2022-07-29T09:40:36.175Z,41.00
2022-07-29T09:43:37.854Z,40.07
2022-07-29T09:46:39.613Z,40.22
2022-07-29T09:50:01.143Z,39.32
2022-07-29T09:53:02.938Z,39.21
2022-07-29T09:56:05.915Z,37.34
2022-07-29T09:59:08.739Z,37.88
2022-07-29T10:02:17.732Z,38.16
2022-07-29T10:05:25.816Z,37.72
2022-07-29T10:08:27.991Z,36.86
2022-07-29T10:11:48.417Z,37.41
2022-07-29T10:14:51.713Z,36.82
2022-07-29T10:17:54.928Z,37.36
2022-07-29T10:20:58.011Z,36.74
2022-07-29T10:24:01.340Z,36.88
2022-07-29T10:27:05.096Z,35.33
2022-07-29T10:30:07.691Z,35.02
2022-07-29T10:33:28.005Z,35.59
2022-07-29T10:36:32.793Z,36.60
2022-07-29T10:39:49.710Z,38.02
2022-07-29T10:42:54.585Z,36.58
2022-07-29T10:45:58.081Z,35.52
2022-07-29T10:49:31.035Z,35.19
2022-07-29T10:52:51.559Z,33.96
2022-07-29T10:55:53.698Z,34.75
2022-07-29T10:59:36.217Z,34.89
2022-07-29T11:02:43.540Z,34.07
2022-07-29T11:05:59.392Z,33.55
2022-07-29T11:09:25.895Z,33.78
2022-07-29T11:12:36.948Z,34.31
2022-07-29T11:15:58.454Z,34.66
2022-07-29T11:19:13.129Z,36.66
2022-07-29T11:22:33.774Z,35.79
2022-07-29T11:25:50.251Z,36.45
2022-07-29T11:28:59.089Z,36.91
2022-07-29T11:32:18.313Z,37.79
2022-07-29T11:35:37.287Z,37.25
2022-07-29T11:38:41.642Z,37.70
2022-07-29T11:41:43.414Z,38.61
2022-07-29T11:45:08.892Z,37.91
2022-07-29T11:51:52.338Z,38.33
2022-07-29T11:55:00.740Z,38.09
2022-07-29T11:58:11.462Z,36.93
2022-07-29T12:01:18.519Z,37.67
2022-07-29T12:04:20.254Z,38.13
2022-07-29T12:07:03.897Z,38.58
2022-07-29T12:07:35.182Z,38.24
2022-07-29T12:10:38.554Z,38.54
2022-07-29T12:13:40.957Z,38.62
2022-07-29T12:16:42.780Z,38.64
2022-07-29T12:19:46.212Z,38.83
2022-07-29T12:22:49.503Z,38.47
2022-07-29T12:40:24.020Z,39.76
2022-07-29T12:43:26.459Z,39.15
2022-07-29T12:46:28.550Z,38.66
2022-07-29T12:49:30.843Z,39.38
2022-07-29T12:52:40.018Z,39.84
2022-07-29T12:55:52.349Z,39.64
2022-07-29T12:58:57.001Z,39.28
2022-07-29T13:02:01.265Z,39.19
2022-07-29T13:05:05.081Z,38.77
2022-07-29T13:08:20.242Z,39.12
2022-07-29T13:11:45.284Z,38.67
2022-07-29T13:14:50.080Z,39.23
2022-07-29T13:17:51.774Z,38.26
2022-07-29T13:20:54.057Z,38.15
2022-07-29T13:23:55.879Z,37.52
2022-07-29T13:26:57.584Z,38.29
2022-07-29T13:30:01.734Z,37.20
2022-07-29T13:33:03.615Z,38.67
2022-07-29T13:36:05.469Z,38.23
2022-07-29T13:39:07.166Z,37.77
2022-07-29T13:42:11.010Z,37.71
2022-07-29T13:45:13.114Z,38.08
2022-07-29T13:48:14.979Z,38.00
2022-07-29T13:51:16.597Z,38.22
2022-07-29T13:54:18.576Z,38.48
2022-07-29T13:57:20.428Z,38.07
2022-07-29T14:00:22.254Z,38.85
2022-07-29T14:03:24.062Z,38.21
2022-07-29T14:06:25.756Z,38.14
2022-07-29T14:09:27.418Z,38.29
2022-07-29T14:12:29.151Z,38.64
2022-07-29T14:15:30.921Z,38.10
2022-07-29T14:18:32.720Z,36.61
2022-07-29T14:21:35.563Z,37.35
2022-07-29T14:24:39.076Z,37.51
2022-07-29T14:27:41.482Z,38.39
2022-07-29T14:30:44.221Z,38.38
2022-07-29T14:33:49.242Z,36.94
2022-07-29T14:36:51.119Z,37.62
2022-07-29T14:39:52.810Z,37.75
2022-07-29T14:42:54.573Z,38.04
2022-07-29T14:46:01.297Z,36.45
2022-07-29T14:49:06.616Z,37.04
2022-07-29T14:52:11.109Z,37.32
2022-07-29T14:55:16.565Z,36.65
2022-07-29T14:58:23.303Z,36.42
2022-07-29T15:01:25.897Z,37.21
2022-07-29T15:04:27.687Z,35.84
2022-07-29T15:07:29.475Z,36.68
2022-07-29T15:10:31.250Z,35.29
2022-07-29T15:13:33.818Z,34.03
2022-07-29T15:16:41.991Z,34.49
2022-07-29T15:19:45.790Z,35.14
2022-07-29T15:22:47.529Z,35.32
2022-07-29T15:25:49.285Z,35.59
2022-07-29T15:28:50.991Z,36.84
2022-07-29T15:31:53.316Z,35.91
2022-07-29T15:34:55.047Z,35.62
2022-07-29T15:37:56.676Z,35.23
2022-07-29T15:40:58.418Z,36.22
2022-07-29T15:44:00.120Z,35.56
2022-07-29T15:47:04.982Z,34.94
2022-07-29T15:50:12.794Z,35.29
2022-07-29T15:53:14.600Z,36.12
2022-07-29T15:56:16.306Z,35.55
2022-07-29T15:59:22.378Z,36.68
2022-07-29T16:02:24.505Z,35.96
2022-07-29T16:05:26.379Z,35.43
2022-07-29T16:08:28.004Z,35.84
2022-07-29T16:11:29.720Z,36.15
2022-07-29T16:14:31.432Z,36.22
2022-07-29T16:17:33.093Z,38.13
2022-07-29T16:20:35.050Z,37.84
2022-07-29T16:23:36.941Z,37.84
2022-07-29T16:26:38.634Z,37.57
2022-07-29T16:29:40.308Z,37.31
2022-07-29T16:32:42.108Z,35.66
2022-07-29T16:35:43.739Z,35.57
2022-07-29T16:38:47.508Z,34.50
2022-07-29T16:41:49.409Z,34.88
2022-07-29T16:44:51.113Z,33.73
2022-07-29T16:48:00.240Z,32.74
2022-07-29T16:51:03.700Z,31.94
2022-07-29T16:54:07.505Z,32.31
2022-07-29T16:57:15.252Z,34.62
2022-07-29T17:00:17.507Z,35.39
2022-07-29T17:03:19.504Z,35.04
2022-07-29T17:06:21.241Z,32.48
2022-07-29T17:09:23.094Z,33.84
2022-07-29T17:12:25.024Z,34.18
2022-07-29T17:15:26.765Z,32.50
2022-07-29T17:18:28.503Z,32.83
2022-07-29T17:21:30.197Z,33.37
2022-07-29T17:24:31.844Z,34.08
2022-07-29T17:27:33.815Z,34.81
2022-07-29T17:30:35.449Z,36.76
2022-07-29T17:33:37.363Z,36.80
2022-07-29T17:36:39.060Z,37.12
2022-07-29T17:39:42.120Z,38.00
2022-07-29T17:42:43.780Z,38.45
2022-07-29T17:45:49.030Z,39.91
2022-07-29T17:48:52.692Z,39.95
2022-07-29T17:52:00.374Z,40.38
2022-07-29T17:55:02.644Z,40.41
2022-07-29T17:58:04.347Z,40.14
2022-07-29T18:01:06.419Z,40.78
2022-07-29T18:04:09.262Z,40.91
2022-07-29T18:07:11.616Z,40.74
2022-07-29T18:10:13.290Z,41.39
2022-07-29T18:13:16.410Z,41.66
2022-07-29T18:16:18.493Z,41.56
2022-07-29T18:19:20.240Z,41.53
2022-07-29T18:22:22.131Z,41.64
2022-07-29T18:25:23.795Z,42.54
2022-07-29T18:28:25.471Z,42.26
2022-07-29T18:31:27.869Z,41.75
2022-07-29T18:34:29.589Z,41.94
2022-07-29T18:38:01.038Z,41.38
2022-07-29T18:40:52.949Z,40.59
2022-07-29T18:43:54.623Z,41.26
2022-07-29T18:46:56.547Z,41.05
2022-07-29T18:49:59.680Z,39.77
2022-07-29T18:53:03.390Z,40.04
2022-07-29T18:56:05.059Z,40.89
2022-07-29T18:59:07.007Z,41.80
2022-07-29T19:02:09.144Z,41.59
2022-07-29T19:05:11.216Z,41.54
2022-07-29T19:08:14.418Z,42.15
2022-07-29T19:11:16.104Z,41.15
2022-07-29T19:14:17.722Z,41.97
2022-07-29T19:17:19.426Z,41.77
2022-07-29T19:20:21.139Z,41.02
2022-07-29T19:23:23.973Z,42.36
2022-07-29T19:26:26.234Z,43.26
2022-07-29T19:29:28.487Z,42.59
2022-07-29T19:32:30.226Z,43.20
2022-07-29T19:35:31.934Z,42.64
2022-07-29T19:38:33.597Z,42.87
2022-07-29T19:41:35.492Z,43.23
2022-07-29T19:44:37.189Z,44.46
2022-07-29T19:47:38.969Z,43.55
2022-07-29T19:50:40.691Z,44.41
2022-07-29T19:53:45.268Z,44.79
2022-07-29T19:56:47.034Z,43.40
2022-07-29T19:59:48.874Z,43.06
2022-07-29T20:02:52.289Z,44.13
2022-07-29T20:05:54.127Z,42.42
2022-07-29T20:08:58.717Z,43.33
2022-07-29T20:12:00.998Z,44.16
2022-07-29T20:15:03.227Z,44.28
2022-07-29T20:18:05.195Z,44.59
2022-07-29T20:21:06.963Z,43.89
2022-07-29T20:24:10.391Z,44.06
2022-07-29T20:27:13.354Z,43.71
2022-07-29T20:30:15.603Z,43.51
2022-07-29T20:33:19.529Z,43.59
2022-07-29T20:36:21.295Z,43.43
2022-07-29T20:39:22.954Z,42.74
2022-07-29T20:42:24.623Z,43.32
2022-07-29T20:45:26.831Z,42.81
2022-07-29T20:48:28.464Z,42.33
2022-07-29T20:51:30.120Z,41.35
2022-07-29T20:54:31.753Z,41.08
2022-07-29T20:57:38.672Z,42.50
2022-07-29T21:00:41.565Z,41.90
2022-07-29T21:03:43.168Z,42.42
2022-07-29T21:06:44.751Z,39.95
2022-07-29T21:09:46.533Z,39.15
2022-07-29T21:12:48.696Z,38.22
2022-07-29T21:15:52.326Z,38.54
2022-07-29T21:18:57.257Z,38.43
2022-07-29T21:21:58.913Z,38.75
2022-07-29T21:25:01.017Z,39.21
2022-07-29T21:28:21.065Z,39.19
2022-07-29T21:31:22.686Z,39.26
2022-07-29T21:34:24.621Z,38.58
2022-07-29T21:37:26.316Z,38.78
2022-07-29T21:40:28.167Z,39.60
2022-07-29T21:43:30.365Z,40.03
2022-07-29T21:46:32.164Z,39.71
2022-07-29T21:49:33.860Z,41.71
2022-07-29T21:52:35.753Z,40.49
2022-07-29T21:55:39.425Z,40.67
2022-07-29T21:58:41.269Z,41.32
2022-07-29T22:01:42.947Z,42.10
2022-07-29T22:04:44.751Z,42.46
2022-07-29T22:07:56.521Z,42.52
2022-07-29T22:10:58.586Z,42.86
2022-07-29T22:14:00.241Z,43.18
2022-07-29T22:17:02.344Z,43.71
2022-07-29T22:20:05.316Z,43.68
2022-07-29T22:23:07.023Z,43.71
2022-07-29T22:26:10.494Z,43.86
2022-07-29T22:29:12.181Z,43.98
2022-07-29T22:32:13.824Z,43.93
2022-07-29T22:35:16.571Z,44.71
2022-07-29T22:38:18.482Z,45.00
2022-07-29T22:41:20.081Z,45.22
2022-07-29T22:44:22.094Z,45.45
2022-07-29T22:47:46.679Z,46.09
2022-07-29T22:50:45.899Z,45.97
2022-07-29T22:53:47.575Z,45.97
2022-07-29T22:56:49.268Z,46.68
2022-07-29T22:59:50.897Z,47.77
2022-07-29T23:02:52.521Z,48.39
2022-07-29T23:05:54.149Z,49.61
2022-07-29T23:08:55.866Z,49.58
2022-07-29T23:11:57.548Z,49.77
2022-07-29T23:14:59.338Z,49.80
2022-07-29T23:18:00.998Z,50.50
2022-07-29T23:21:02.706Z,50.88
2022-07-29T23:24:04.542Z,51.32
2022-07-29T23:27:06.240Z,51.87
2022-07-29T23:30:08.508Z,52.22
2022-07-29T23:33:10.204Z,52.75
2022-07-29T23:36:11.918Z,53.45
2022-07-29T23:39:13.798Z,53.46
2022-07-29T23:42:15.469Z,54.14
2022-07-29T23:45:17.123Z,54.47
2022-07-29T23:48:18.727Z,54.61
2022-07-29T23:51:20.990Z,55.54
2022-07-29T23:54:22.880Z,55.87
2022-07-29T23:57:26.423Z,55.87
